sensor_id;sensor_type;location;lat;lon;timestamp;temperature;humidity
76751;SHT31;65216;51.090;-115.352;2023-02-12T00:01:40;22.06;20.56
76751;SHT31;65216;51.090;-115.352;2023-02-12T00:04:07;22.04;20.55
76751;SHT31;65216;51.090;-115.352;2023-02-12T00:06:35;22.01;20.59
76751;SHT31;65216;51.090;-115.352;2023-02-12T00:09:12;21.99;20.59
76751;SHT31;65216;51.090;-115.352;2023-02-12T00:11:39;21.97;20.73
76751;SHT31;65216;51.090;-115.352;2023-02-12T00:14:07;21.96;20.76
76751;SHT31;65216;51.090;-115.352;2023-02-12T00:16:38;21.93;20.73
76751;SHT31;65216;51.090;-115.352;2023-02-12T00:19:05;21.92;20.78
76751;SHT31;65216;51.090;-115.352;2023-02-12T00:21:33;21.91;20.86
76751;SHT31;65216;51.090;-115.352;2023-02-12T00:24:01;21.89;20.87
76751;SHT31;65216;51.090;-115.352;2023-02-12T00:26:31;21.87;20.81
76751;SHT31;65216;51.090;-115.352;2023-02-12T00:29:00;21.83;20.81
76751;SHT31;65216;51.090;-115.352;2023-02-12T00:31:28;21.81;20.95
76751;SHT31;65216;51.090;-115.352;2023-02-12T00:33:57;21.79;21.00
76751;SHT31;65216;51.090;-115.352;2023-02-12T00:36:29;21.79;21.06
76751;SHT31;65216;51.090;-115.352;2023-02-12T00:39:00;21.78;21.07
76751;SHT31;65216;51.090;-115.352;2023-02-12T00:41:27;21.77;21.06
76751;SHT31;65216;51.090;-115.352;2023-02-12T00:43:59;21.75;21.08
76751;SHT31;65216;51.090;-115.352;2023-02-12T00:46:29;21.76;21.04
76751;SHT31;65216;51.090;-115.352;2023-02-12T00:48:57;21.75;21.04
76751;SHT31;65216;51.090;-115.352;2023-02-12T00:51:24;21.74;21.00
76751;SHT31;65216;51.090;-115.352;2023-02-12T00:53:51;21.74;20.94
76751;SHT31;65216;51.090;-115.352;2023-02-12T00:56:19;21.73;20.93
76751;SHT31;65216;51.090;-115.352;2023-02-12T00:58:46;21.72;20.96
76751;SHT31;65216;51.090;-115.352;2023-02-12T01:01:14;21.69;20.90
76751;SHT31;65216;51.090;-115.352;2023-02-12T01:03:41;21.70;20.92
76751;SHT31;65216;51.090;-115.352;2023-02-12T01:06:11;21.71;20.97
76751;SHT31;65216;51.090;-115.352;2023-02-12T01:08:38;21.70;20.99
76751;SHT31;65216;51.090;-115.352;2023-02-12T01:11:06;21.69;21.11
76751;SHT31;65216;51.090;-115.352;2023-02-12T01:13:40;21.68;21.23
76751;SHT31;65216;51.090;-115.352;2023-02-12T01:16:17;21.67;21.28
76751;SHT31;65216;51.090;-115.352;2023-02-12T01:18:51;21.67;21.27
76751;SHT31;65216;51.090;-115.352;2023-02-12T01:21:24;21.67;21.35
76751;SHT31;65216;51.090;-115.352;2023-02-12T01:23:57;21.65;21.46
76751;SHT31;65216;51.090;-115.352;2023-02-12T01:26:28;21.64;21.56
76751;SHT31;65216;51.090;-115.352;2023-02-12T01:29:01;21.63;21.53
76751;SHT31;65216;51.090;-115.352;2023-02-12T01:31:32;21.65;21.62
76751;SHT31;65216;51.090;-115.352;2023-02-12T01:34:04;21.64;21.59
76751;SHT31;65216;51.090;-115.352;2023-02-12T01:36:33;21.63;21.57
76751;SHT31;65216;51.090;-115.352;2023-02-12T01:39:01;21.64;21.60
76751;SHT31;65216;51.090;-115.352;2023-02-12T01:41:30;21.64;21.60
76751;SHT31;65216;51.090;-115.352;2023-02-12T01:47:00;21.63;21.65
76751;SHT31;65216;51.090;-115.352;2023-02-12T01:49:39;21.63;21.71
76751;SHT31;65216;51.090;-115.352;2023-02-12T01:52:17;21.62;21.75
76751;SHT31;65216;51.090;-115.352;2023-02-12T01:54:58;21.62;21.80
76751;SHT31;65216;51.090;-115.352;2023-02-12T01:57:33;21.63;21.82
76751;SHT31;65216;51.090;-115.352;2023-02-12T02:00:11;21.61;21.80
76751;SHT31;65216;51.090;-115.352;2023-02-12T02:02:51;21.60;21.81
76751;SHT31;65216;51.090;-115.352;2023-02-12T02:05:30;21.60;21.84
76751;SHT31;65216;51.090;-115.352;2023-02-12T02:08:06;21.59;21.86
76751;SHT31;65216;51.090;-115.352;2023-02-12T02:10:35;21.59;21.92
76751;SHT31;65216;51.090;-115.352;2023-02-12T02:13:05;21.58;21.89
76751;SHT31;65216;51.090;-115.352;2023-02-12T02:15:53;21.57;21.90
76751;SHT31;65216;51.090;-115.352;2023-02-12T02:18:50;21.57;21.93
76751;SHT31;65216;51.090;-115.352;2023-02-12T02:33:54;21.51;22.19
76751;SHT31;65216;51.090;-115.352;2023-02-12T02:39:25;21.50;22.11
76751;SHT31;65216;51.090;-115.352;2023-02-12T02:42:32;21.48;22.10
76751;SHT31;65216;51.090;-115.352;2023-02-12T02:45:14;21.48;22.07
76751;SHT31;65216;51.090;-115.352;2023-02-12T02:48:17;21.47;22.09
76751;SHT31;65216;51.090;-115.352;2023-02-12T02:50:58;21.46;22.10
76751;SHT31;65216;51.090;-115.352;2023-02-12T02:53:59;21.47;22.15
76751;SHT31;65216;51.090;-115.352;2023-02-12T02:56:43;21.46;22.20
76751;SHT31;65216;51.090;-115.352;2023-02-12T02:59:19;21.45;22.21
76751;SHT31;65216;51.090;-115.352;2023-02-12T03:01:57;21.45;22.23
76751;SHT31;65216;51.090;-115.352;2023-02-12T03:04:57;21.44;22.22
76751;SHT31;65216;51.090;-115.352;2023-02-12T03:07:37;21.43;22.12
76751;SHT31;65216;51.090;-115.352;2023-02-12T03:10:20;21.42;22.17
76751;SHT31;65216;51.090;-115.352;2023-02-12T03:13:04;21.41;22.14
76751;SHT31;65216;51.090;-115.352;2023-02-12T03:15:47;21.40;22.14
76751;SHT31;65216;51.090;-115.352;2023-02-12T03:18:43;21.40;22.07
76751;SHT31;65216;51.090;-115.352;2023-02-12T03:21:28;21.39;22.02
76751;SHT31;65216;51.090;-115.352;2023-02-12T03:24:22;21.37;22.01
76751;SHT31;65216;51.090;-115.352;2023-02-12T03:27:25;21.35;21.96
76751;SHT31;65216;51.090;-115.352;2023-02-12T03:29:54;21.34;21.96
76751;SHT31;65216;51.090;-115.352;2023-02-12T03:35:39;21.32;21.91
76751;SHT31;65216;51.090;-115.352;2023-02-12T03:41:05;21.28;21.68
76751;SHT31;65216;51.090;-115.352;2023-02-12T03:43:47;21.27;21.65
76751;SHT31;65216;51.090;-115.352;2023-02-12T03:49:26;21.25;21.41
76751;SHT31;65216;51.090;-115.352;2023-02-12T03:52:25;21.25;21.32
76751;SHT31;65216;51.090;-115.352;2023-02-12T03:54:54;21.23;21.22
76751;SHT31;65216;51.090;-115.352;2023-02-12T03:57:22;21.22;21.14
76751;SHT31;65216;51.090;-115.352;2023-02-12T03:59:56;21.20;21.04
76751;SHT31;65216;51.090;-115.352;2023-02-12T04:02:26;21.19;21.02
76751;SHT31;65216;51.090;-115.352;2023-02-12T04:04:57;21.18;21.00
76751;SHT31;65216;51.090;-115.352;2023-02-12T04:07:31;21.17;20.94
76751;SHT31;65216;51.090;-115.352;2023-02-12T04:10:00;21.15;20.88
76751;SHT31;65216;51.090;-115.352;2023-02-12T04:12:30;21.13;20.77
76751;SHT31;65216;51.090;-115.352;2023-02-12T04:21:12;21.10;20.53
76751;SHT31;65216;51.090;-115.352;2023-02-12T04:24:06;21.09;20.42
76751;SHT31;65216;51.090;-115.352;2023-02-12T04:27:03;21.07;20.32
76751;SHT31;65216;51.090;-115.352;2023-02-12T04:36:30;21.04;20.08
76751;SHT31;65216;51.090;-115.352;2023-02-12T04:39:14;21.04;19.98
76751;SHT31;65216;51.090;-115.352;2023-02-12T04:41:47;21.01;19.95
76751;SHT31;65216;51.090;-115.352;2023-02-12T04:46:50;21.00;19.86
76751;SHT31;65216;51.090;-115.352;2023-02-12T04:49:19;20.99;19.80
76751;SHT31;65216;51.090;-115.352;2023-02-12T04:51:48;20.98;19.79
76751;SHT31;65216;51.090;-115.352;2023-02-12T04:54:17;20.99;19.77
76751;SHT31;65216;51.090;-115.352;2023-02-12T04:56:46;20.98;19.71
76751;SHT31;65216;51.090;-115.352;2023-02-12T04:59:15;20.97;19.70
76751;SHT31;65216;51.090;-115.352;2023-02-12T05:01:42;20.97;19.66
76751;SHT31;65216;51.090;-115.352;2023-02-12T05:04:14;20.97;19.60
76751;SHT31;65216;51.090;-115.352;2023-02-12T05:06:47;20.96;19.60
76751;SHT31;65216;51.090;-115.352;2023-02-12T05:09:16;20.94;19.54
76751;SHT31;65216;51.090;-115.352;2023-02-12T05:11:45;20.95;19.51
76751;SHT31;65216;51.090;-115.352;2023-02-12T05:14:12;20.94;19.48
76751;SHT31;65216;51.090;-115.352;2023-02-12T05:16:40;20.94;19.44
76751;SHT31;65216;51.090;-115.352;2023-02-12T05:19:10;20.93;19.43
76751;SHT31;65216;51.090;-115.352;2023-02-12T05:21:40;20.92;19.44
76751;SHT31;65216;51.090;-115.352;2023-02-12T05:24:10;20.91;19.41
76751;SHT31;65216;51.090;-115.352;2023-02-12T05:26:38;20.91;19.45
76751;SHT31;65216;51.090;-115.352;2023-02-12T05:29:12;20.90;19.64
76751;SHT31;65216;51.090;-115.352;2023-02-12T05:31:43;20.89;19.82
76751;SHT31;65216;51.090;-115.352;2023-02-12T05:34:11;20.89;19.73
76751;SHT31;65216;51.090;-115.352;2023-02-12T05:36:39;20.89;19.84
76751;SHT31;65216;51.090;-115.352;2023-02-12T05:39:06;20.89;19.76
76751;SHT31;65216;51.090;-115.352;2023-02-12T05:41:36;20.89;19.83
76751;SHT31;65216;51.090;-115.352;2023-02-12T05:44:03;20.88;19.77
76751;SHT31;65216;51.090;-115.352;2023-02-12T05:46:31;20.89;19.82
76751;SHT31;65216;51.090;-115.352;2023-02-12T05:48:59;20.88;19.89
76751;SHT31;65216;51.090;-115.352;2023-02-12T05:51:30;20.88;20.03
76751;SHT31;65216;51.090;-115.352;2023-02-12T05:54:01;20.87;20.04
76751;SHT31;65216;51.090;-115.352;2023-02-12T05:59:07;20.87;19.94
76751;SHT31;65216;51.090;-115.352;2023-02-12T06:01:41;20.86;19.90
76751;SHT31;65216;51.090;-115.352;2023-02-12T06:04:15;20.86;19.84
76751;SHT31;65216;51.090;-115.352;2023-02-12T06:06:56;20.86;19.82
76751;SHT31;65216;51.090;-115.352;2023-02-12T06:09:25;20.86;19.80
76751;SHT31;65216;51.090;-115.352;2023-02-12T06:11:52;20.86;19.78
76751;SHT31;65216;51.090;-115.352;2023-02-12T06:14:20;20.85;19.72
76751;SHT31;65216;51.090;-115.352;2023-02-12T06:16:53;20.85;19.71
76751;SHT31;65216;51.090;-115.352;2023-02-12T06:19:20;20.85;19.69
76751;SHT31;65216;51.090;-115.352;2023-02-12T06:21:48;20.85;19.68
76751;SHT31;65216;51.090;-115.352;2023-02-12T06:24:16;20.85;19.65
76751;SHT31;65216;51.090;-115.352;2023-02-12T06:26:43;20.86;19.63
76751;SHT31;65216;51.090;-115.352;2023-02-12T06:29:17;20.85;19.61
76751;SHT31;65216;51.090;-115.352;2023-02-12T06:31:48;20.86;19.61
76751;SHT31;65216;51.090;-115.352;2023-02-12T06:34:15;20.85;19.60
76751;SHT31;65216;51.090;-115.352;2023-02-12T06:36:44;20.84;19.58
76751;SHT31;65216;51.090;-115.352;2023-02-12T06:39:12;20.85;19.58
76751;SHT31;65216;51.090;-115.352;2023-02-12T06:41:42;20.84;19.53
76751;SHT31;65216;51.090;-115.352;2023-02-12T06:44:10;20.85;19.49
76751;SHT31;65216;51.090;-115.352;2023-02-12T06:46:40;20.85;19.47
76751;SHT31;65216;51.090;-115.352;2023-02-12T06:49:10;20.84;19.49
76751;SHT31;65216;51.090;-115.352;2023-02-12T06:51:39;20.84;19.50
76751;SHT31;65216;51.090;-115.352;2023-02-12T06:54:16;20.83;19.50
76751;SHT31;65216;51.090;-115.352;2023-02-12T06:56:48;20.83;19.55
76751;SHT31;65216;51.090;-115.352;2023-02-12T06:59:15;20.81;19.64
76751;SHT31;65216;51.090;-115.352;2023-02-12T07:01:45;20.81;19.60
76751;SHT31;65216;51.090;-115.352;2023-02-12T07:04:13;20.81;19.63
76751;SHT31;65216;51.090;-115.352;2023-02-12T07:06:45;20.80;19.65
76751;SHT31;65216;51.090;-115.352;2023-02-12T07:09:16;20.81;19.73
76751;SHT31;65216;51.090;-115.352;2023-02-12T07:11:43;20.81;19.78
76751;SHT31;65216;51.090;-115.352;2023-02-12T07:14:16;20.80;19.84
76751;SHT31;65216;51.090;-115.352;2023-02-12T07:16:44;20.80;19.82
76751;SHT31;65216;51.090;-115.352;2023-02-12T07:19:14;20.80;20.02
76751;SHT31;65216;51.090;-115.352;2023-02-12T07:21:45;20.80;20.09
76751;SHT31;65216;51.090;-115.352;2023-02-12T07:24:15;20.79;20.44
76751;SHT31;65216;51.090;-115.352;2023-02-12T07:26:45;20.78;20.67
76751;SHT31;65216;51.090;-115.352;2023-02-12T07:29:12;20.77;20.91
76751;SHT31;65216;51.090;-115.352;2023-02-12T07:31:40;20.77;20.55
76751;SHT31;65216;51.090;-115.352;2023-02-12T07:34:08;20.76;20.50
76751;SHT31;65216;51.090;-115.352;2023-02-12T07:36:36;20.76;20.46
76751;SHT31;65216;51.090;-115.352;2023-02-12T07:39:06;20.74;20.53
76751;SHT31;65216;51.090;-115.352;2023-02-12T07:41:35;20.74;20.46
76751;SHT31;65216;51.090;-115.352;2023-02-12T07:44:04;20.72;20.33
76751;SHT31;65216;51.090;-115.352;2023-02-12T07:46:42;20.70;20.30
76751;SHT31;65216;51.090;-115.352;2023-02-12T07:49:19;20.68;20.32
76751;SHT31;65216;51.090;-115.352;2023-02-12T07:51:47;20.67;20.26
76751;SHT31;65216;51.090;-115.352;2023-02-12T07:54:21;20.64;20.27
76751;SHT31;65216;51.090;-115.352;2023-02-12T07:56:49;20.62;20.21
76751;SHT31;65216;51.090;-115.352;2023-02-12T07:59:21;20.60;20.19
76751;SHT31;65216;51.090;-115.352;2023-02-12T08:01:48;20.58;20.11
76751;SHT31;65216;51.090;-115.352;2023-02-12T08:04:18;20.56;20.04
76751;SHT31;65216;51.090;-115.352;2023-02-12T08:06:50;20.55;20.00
76751;SHT31;65216;51.090;-115.352;2023-02-12T08:09:23;20.54;20.01
76751;SHT31;65216;51.090;-115.352;2023-02-12T08:11:55;20.52;20.01
76751;SHT31;65216;51.090;-115.352;2023-02-12T08:14:23;20.51;19.95
76751;SHT31;65216;51.090;-115.352;2023-02-12T08:16:53;20.48;19.90
76751;SHT31;65216;51.090;-115.352;2023-02-12T08:19:21;20.47;19.91
76751;SHT31;65216;51.090;-115.352;2023-02-12T08:21:54;20.47;19.87
76751;SHT31;65216;51.090;-115.352;2023-02-12T08:24:22;20.44;19.92
76751;SHT31;65216;51.090;-115.352;2023-02-12T08:26:50;20.43;19.89
76751;SHT31;65216;51.090;-115.352;2023-02-12T08:29:19;20.41;19.83
76751;SHT31;65216;51.090;-115.352;2023-02-12T08:31:54;20.40;19.80
76751;SHT31;65216;51.090;-115.352;2023-02-12T08:34:25;20.39;19.75
76751;SHT31;65216;51.090;-115.352;2023-02-12T08:36:56;20.38;19.73
76751;SHT31;65216;51.090;-115.352;2023-02-12T08:39:28;20.38;19.71
76751;SHT31;65216;51.090;-115.352;2023-02-12T08:41:56;20.37;19.71
76751;SHT31;65216;51.090;-115.352;2023-02-12T08:44:26;20.35;19.69
76751;SHT31;65216;51.090;-115.352;2023-02-12T08:46:54;20.34;19.68
76751;SHT31;65216;51.090;-115.352;2023-02-12T08:49:23;20.33;19.60
76751;SHT31;65216;51.090;-115.352;2023-02-12T08:51:55;20.33;19.60
76751;SHT31;65216;51.090;-115.352;2023-02-12T08:54:26;20.33;19.59
76751;SHT31;65216;51.090;-115.352;2023-02-12T08:57:00;20.32;19.57
76751;SHT31;65216;51.090;-115.352;2023-02-12T08:59:34;20.31;19.60
76751;SHT31;65216;51.090;-115.352;2023-02-12T09:02:04;20.30;19.56
76751;SHT31;65216;51.090;-115.352;2023-02-12T09:04:34;20.29;19.57
76751;SHT31;65216;51.090;-115.352;2023-02-12T09:07:02;20.29;19.57
76751;SHT31;65216;51.090;-115.352;2023-02-12T09:09:32;20.27;19.54
76751;SHT31;65216;51.090;-115.352;2023-02-12T09:11:59;20.27;19.52
76751;SHT31;65216;51.090;-115.352;2023-02-12T09:14:27;20.26;19.50
76751;SHT31;65216;51.090;-115.352;2023-02-12T09:16:54;20.25;19.49
76751;SHT31;65216;51.090;-115.352;2023-02-12T09:19:24;20.25;19.48
76751;SHT31;65216;51.090;-115.352;2023-02-12T09:21:54;20.24;19.46
76751;SHT31;65216;51.090;-115.352;2023-02-12T09:24:28;20.24;19.43
76751;SHT31;65216;51.090;-115.352;2023-02-12T09:26:56;20.23;19.45
76751;SHT31;65216;51.090;-115.352;2023-02-12T09:29:27;20.24;19.41
76751;SHT31;65216;51.090;-115.352;2023-02-12T09:31:55;20.24;19.40
76751;SHT31;65216;51.090;-115.352;2023-02-12T09:34:25;20.23;19.40
76751;SHT31;65216;51.090;-115.352;2023-02-12T09:36:55;20.23;19.38
76751;SHT31;65216;51.090;-115.352;2023-02-12T09:39:23;20.22;19.36
76751;SHT31;65216;51.090;-115.352;2023-02-12T09:41:58;20.21;19.33
76751;SHT31;65216;51.090;-115.352;2023-02-12T09:44:53;20.21;19.31
76751;SHT31;65216;51.090;-115.352;2023-02-12T09:47:51;20.22;19.30
76751;SHT31;65216;51.090;-115.352;2023-02-12T09:50:55;20.21;19.31
76751;SHT31;65216;51.090;-115.352;2023-02-12T09:53:28;20.20;19.29
76751;SHT31;65216;51.090;-115.352;2023-02-12T09:55:57;20.18;19.30
76751;SHT31;65216;51.090;-115.352;2023-02-12T09:58:45;20.18;19.28
76751;SHT31;65216;51.090;-115.352;2023-02-12T10:01:19;20.18;19.30
76751;SHT31;65216;51.090;-115.352;2023-02-12T10:03:51;20.18;19.27
76751;SHT31;65216;51.090;-115.352;2023-02-12T10:06:24;20.16;19.29
76751;SHT31;65216;51.090;-115.352;2023-02-12T10:17:16;20.15;19.23
76751;SHT31;65216;51.090;-115.352;2023-02-12T10:26:12;20.13;19.18
76751;SHT31;65216;51.090;-115.352;2023-02-12T10:28:50;20.11;19.20
76751;SHT31;65216;51.090;-115.352;2023-02-12T10:31:33;20.09;19.20
76751;SHT31;65216;51.090;-115.352;2023-02-12T10:34:12;20.10;19.16
76751;SHT31;65216;51.090;-115.352;2023-02-12T10:36:48;20.10;19.18
76751;SHT31;65216;51.090;-115.352;2023-02-12T10:39:23;20.09;19.15
76751;SHT31;65216;51.090;-115.352;2023-02-12T10:42:10;20.08;19.18
76751;SHT31;65216;51.090;-115.352;2023-02-12T10:44:47;20.08;19.17
76751;SHT31;65216;51.090;-115.352;2023-02-12T10:47:17;20.07;19.14
76751;SHT31;65216;51.090;-115.352;2023-02-12T10:49:48;20.06;19.12
76751;SHT31;65216;51.090;-115.352;2023-02-12T10:55:28;20.04;19.13
76751;SHT31;65216;51.090;-115.352;2023-02-12T10:58:00;20.01;19.18
76751;SHT31;65216;51.090;-115.352;2023-02-12T11:00:45;20.01;19.17
76751;SHT31;65216;51.090;-115.352;2023-02-12T11:03:23;20.01;19.15
76751;SHT31;65216;51.090;-115.352;2023-02-12T11:06:12;20.01;19.15
76751;SHT31;65216;51.090;-115.352;2023-02-12T11:08:43;20.01;19.12
76751;SHT31;65216;51.090;-115.352;2023-02-12T11:11:12;19.99;19.16
76751;SHT31;65216;51.090;-115.352;2023-02-12T11:14:09;19.99;19.13
76751;SHT31;65216;51.090;-115.352;2023-02-12T11:16:55;19.99;19.18
76751;SHT31;65216;51.090;-115.352;2023-02-12T11:19:26;19.99;19.12
76751;SHT31;65216;51.090;-115.352;2023-02-12T11:24:43;20.00;19.11
76751;SHT31;65216;51.090;-115.352;2023-02-12T11:27:24;19.98;19.12
76751;SHT31;65216;51.090;-115.352;2023-02-12T11:30:17;19.98;19.13
76751;SHT31;65216;51.090;-115.352;2023-02-12T11:32:46;19.97;19.13
76751;SHT31;65216;51.090;-115.352;2023-02-12T11:35:15;19.97;19.16
76751;SHT31;65216;51.090;-115.352;2023-02-12T11:38:04;19.96;19.16
76751;SHT31;65216;51.090;-115.352;2023-02-12T11:40:31;19.94;19.17
76751;SHT31;65216;51.090;-115.352;2023-02-12T11:43:00;19.94;19.20
76751;SHT31;65216;51.090;-115.352;2023-02-12T11:45:35;19.93;19.18
76751;SHT31;65216;51.090;-115.352;2023-02-12T11:48:15;19.92;19.20
76751;SHT31;65216;51.090;-115.352;2023-02-12T11:50:48;19.91;19.21
76751;SHT31;65216;51.090;-115.352;2023-02-12T11:53:31;19.92;19.19
76751;SHT31;65216;51.090;-115.352;2023-02-12T11:56:06;19.90;19.19
76751;SHT31;65216;51.090;-115.352;2023-02-12T11:58:36;19.90;19.20
76751;SHT31;65216;51.090;-115.352;2023-02-12T12:01:08;19.90;19.19
76751;SHT31;65216;51.090;-115.352;2023-02-12T12:04:11;19.89;19.20
76751;SHT31;65216;51.090;-115.352;2023-02-12T12:07:04;19.89;19.20
76751;SHT31;65216;51.090;-115.352;2023-02-12T12:12:49;19.88;19.20
76751;SHT31;65216;51.090;-115.352;2023-02-12T12:15:27;19.89;19.20
76751;SHT31;65216;51.090;-115.352;2023-02-12T12:21:35;19.88;19.20
76751;SHT31;65216;51.090;-115.352;2023-02-12T12:24:30;19.87;19.20
76751;SHT31;65216;51.090;-115.352;2023-02-12T12:30:40;19.84;19.20
76751;SHT31;65216;51.090;-115.352;2023-02-12T12:33:29;19.83;19.20
76751;SHT31;65216;51.090;-115.352;2023-02-12T12:43:07;19.81;19.25
76751;SHT31;65216;51.090;-115.352;2023-02-12T12:48:51;19.81;19.23
76751;SHT31;65216;51.090;-115.352;2023-02-12T12:55:21;19.80;19.25
76751;SHT31;65216;51.090;-115.352;2023-02-12T13:07:00;19.81;19.28
76751;SHT31;65216;51.090;-115.352;2023-02-12T13:13:12;19.81;19.27
76751;SHT31;65216;51.090;-115.352;2023-02-12T13:19:06;19.80;19.30
76751;SHT31;65216;51.090;-115.352;2023-02-12T13:21:53;19.80;19.29
76751;SHT31;65216;51.090;-115.352;2023-02-12T13:24:56;19.80;19.29
76751;SHT31;65216;51.090;-115.352;2023-02-12T13:27:57;19.80;19.28
76751;SHT31;65216;51.090;-115.352;2023-02-12T13:30:47;19.80;19.30
76751;SHT31;65216;51.090;-115.352;2023-02-12T13:33:24;19.80;19.28
76751;SHT31;65216;51.090;-115.352;2023-02-12T13:36:14;19.79;19.29
76751;SHT31;65216;51.090;-115.352;2023-02-12T13:38:50;19.79;19.29
76751;SHT31;65216;51.090;-115.352;2023-02-12T13:41:21;19.78;19.29
76751;SHT31;65216;51.090;-115.352;2023-02-12T13:49:42;19.78;19.30
76751;SHT31;65216;51.090;-115.352;2023-02-12T13:52:44;19.79;19.27
76751;SHT31;65216;51.090;-115.352;2023-02-12T14:01:11;19.78;19.29
76751;SHT31;65216;51.090;-115.352;2023-02-12T14:04:20;19.77;19.31
76751;SHT31;65216;51.090;-115.352;2023-02-12T14:07:08;19.77;19.30
76751;SHT31;65216;51.090;-115.352;2023-02-12T14:09:45;19.78;19.31
76751;SHT31;65216;51.090;-115.352;2023-02-12T14:14:55;19.77;19.30
76751;SHT31;65216;51.090;-115.352;2023-02-12T14:23:38;19.77;19.29
76751;SHT31;65216;51.090;-115.352;2023-02-12T14:26:17;19.79;19.30
76751;SHT31;65216;51.090;-115.352;2023-02-12T14:41:54;19.82;19.30
76751;SHT31;65216;51.090;-115.352;2023-02-12T14:44:47;19.82;19.30
76751;SHT31;65216;51.090;-115.352;2023-02-12T14:50:17;19.83;19.34
76751;SHT31;65216;51.090;-115.352;2023-02-12T14:53:03;19.83;19.36
76751;SHT31;65216;51.090;-115.352;2023-02-12T14:55:59;19.83;19.37
76751;SHT31;65216;51.090;-115.352;2023-02-12T14:58:29;19.83;19.40
76751;SHT31;65216;51.090;-115.352;2023-02-12T15:00:58;19.83;19.39
76751;SHT31;65216;51.090;-115.352;2023-02-12T15:06:16;19.84;19.40
76751;SHT31;65216;51.090;-115.352;2023-02-12T15:08:59;19.83;19.44
76751;SHT31;65216;51.090;-115.352;2023-02-12T15:11:49;19.84;19.45
76751;SHT31;65216;51.090;-115.352;2023-02-12T15:14:35;19.83;19.49
76751;SHT31;65216;51.090;-115.352;2023-02-12T15:25:15;19.85;19.51
76751;SHT31;65216;51.090;-115.352;2023-02-12T15:27:55;19.85;19.54
76751;SHT31;65216;51.090;-115.352;2023-02-12T15:30:41;19.85;19.59
76751;SHT31;65216;51.090;-115.352;2023-02-12T15:33:10;19.86;19.60
76751;SHT31;65216;51.090;-115.352;2023-02-12T15:35:52;19.88;19.62
76751;SHT31;65216;51.090;-115.352;2023-02-12T15:38:21;19.88;19.71
76751;SHT31;65216;51.090;-115.352;2023-02-12T15:41:01;19.89;19.76
76751;SHT31;65216;51.090;-115.352;2023-02-12T15:43:30;19.91;19.74
76751;SHT31;65216;51.090;-115.352;2023-02-12T15:46:05;19.91;19.80
76751;SHT31;65216;51.090;-115.352;2023-02-12T15:48:45;19.93;19.82
76751;SHT31;65216;51.090;-115.352;2023-02-12T15:51:32;19.93;19.87
76751;SHT31;65216;51.090;-115.352;2023-02-12T15:54:06;19.95;19.88
76751;SHT31;65216;51.090;-115.352;2023-02-12T15:56:34;19.95;19.90
76751;SHT31;65216;51.090;-115.352;2023-02-12T15:59:14;19.97;19.91
76751;SHT31;65216;51.090;-115.352;2023-02-12T16:01:56;19.98;19.94
76751;SHT31;65216;51.090;-115.352;2023-02-12T16:04:30;19.98;19.98
76751;SHT31;65216;51.090;-115.352;2023-02-12T16:07:01;20.00;20.00
76751;SHT31;65216;51.090;-115.352;2023-02-12T16:09:29;20.02;20.05
76751;SHT31;65216;51.090;-115.352;2023-02-12T16:12:03;20.04;20.12
76751;SHT31;65216;51.090;-115.352;2023-02-12T16:14:41;20.06;20.18
76751;SHT31;65216;51.090;-115.352;2023-02-12T16:17:45;20.08;20.27
76751;SHT31;65216;51.090;-115.352;2023-02-12T16:22:44;20.13;20.39
76751;SHT31;65216;51.090;-115.352;2023-02-12T16:27:56;20.13;20.54
76751;SHT31;65216;51.090;-115.352;2023-02-12T16:30:38;20.14;20.65
76751;SHT31;65216;51.090;-115.352;2023-02-12T16:33:47;20.14;20.67
76751;SHT31;65216;51.090;-115.352;2023-02-12T16:36:13;20.16;20.82
76751;SHT31;65216;51.090;-115.352;2023-02-12T16:38:53;20.16;20.94
76751;SHT31;65216;51.090;-115.352;2023-02-12T16:41:34;20.18;21.06
76751;SHT31;65216;51.090;-115.352;2023-02-12T16:44:25;20.19;21.12
76751;SHT31;65216;51.090;-115.352;2023-02-12T16:46:57;20.21;21.21
76751;SHT31;65216;51.090;-115.352;2023-02-12T16:49:28;20.22;21.30
76751;SHT31;65216;51.090;-115.352;2023-02-12T16:55:05;20.24;21.56
76751;SHT31;65216;51.090;-115.352;2023-02-12T16:57:43;20.24;21.67
76751;SHT31;65216;51.090;-115.352;2023-02-12T17:00:13;20.24;21.75
76751;SHT31;65216;51.090;-115.352;2023-02-12T17:02:44;20.26;21.85
76751;SHT31;65216;51.090;-115.352;2023-02-12T17:05:13;20.28;21.87
76751;SHT31;65216;51.090;-115.352;2023-02-12T17:07:42;20.29;21.94
76751;SHT31;65216;51.090;-115.352;2023-02-12T17:10:13;20.30;22.09
76751;SHT31;65216;51.090;-115.352;2023-02-12T17:12:51;20.30;22.17
76751;SHT31;65216;51.090;-115.352;2023-02-12T17:18:18;20.33;22.37
76751;SHT31;65216;51.090;-115.352;2023-02-12T17:20:50;20.33;22.53
76751;SHT31;65216;51.090;-115.352;2023-02-12T17:23:24;20.34;22.68
76751;SHT31;65216;51.090;-115.352;2023-02-12T17:25:52;20.36;22.69
76751;SHT31;65216;51.090;-115.352;2023-02-12T17:28:20;20.38;22.85
76751;SHT31;65216;51.090;-115.352;2023-02-12T17:30:47;20.40;23.01
76751;SHT31;65216;51.090;-115.352;2023-02-12T17:33:15;20.42;23.19
76751;SHT31;65216;51.090;-115.352;2023-02-12T17:35:42;20.43;23.32
76751;SHT31;65216;51.090;-115.352;2023-02-12T17:38:12;20.44;23.36
76751;SHT31;65216;51.090;-115.352;2023-02-12T17:40:42;20.45;23.60
76751;SHT31;65216;51.090;-115.352;2023-02-12T17:43:09;20.47;23.70
76751;SHT31;65216;51.090;-115.352;2023-02-12T17:45:40;20.48;23.77
76751;SHT31;65216;51.090;-115.352;2023-02-12T17:48:14;20.49;23.80
76751;SHT31;65216;51.090;-115.352;2023-02-12T17:50:42;20.52;23.79
76751;SHT31;65216;51.090;-115.352;2023-02-12T17:53:09;20.53;23.90
76751;SHT31;65216;51.090;-115.352;2023-02-12T17:55:38;20.56;23.98
76751;SHT31;65216;51.090;-115.352;2023-02-12T17:58:08;20.58;24.02
76751;SHT31;65216;51.090;-115.352;2023-02-12T18:00:35;20.60;24.04
76751;SHT31;65216;51.090;-115.352;2023-02-12T18:03:06;20.61;24.10
76751;SHT31;65216;51.090;-115.352;2023-02-12T18:05:38;20.63;24.07
76751;SHT31;65216;51.090;-115.352;2023-02-12T18:08:10;20.65;24.23
76751;SHT31;65216;51.090;-115.352;2023-02-12T18:10:40;20.66;24.28
76751;SHT31;65216;51.090;-115.352;2023-02-12T18:13:09;20.68;24.30
76751;SHT31;65216;51.090;-115.352;2023-02-12T18:15:38;20.70;24.34
76751;SHT31;65216;51.090;-115.352;2023-02-12T18:18:09;20.72;24.40